Accueil
METAR-TAF:

METAR-TAF

Aéroports :

Logan-Cache Airport

Logan, Utah, États-Unis

latitude: 41-46-58N, longitude: 111-51-14W, altitude: 1357 m

Observation

Le bulletin a été fait il y a 39 minutes, à 05:51 UTC
Vent calme
Température 18°C
Humidité 49%
Pression 1021 hPa
Visibilité: 16.1 km
Ciel clair

METAR: KLGU 030551Z AUTO 00000KT 10SM CLR 18/07 A3015 RMK AO2 SLP160 T01830067 10294 20167 51009

Heure: 00:30 (06:30 UTC)

Prévision

Le bulletin a été fait il y a 1 heure et 10 minutes, à 05:20 UTC
Prévision valable du 03 à 06 UTC au 04 à 06 UTC
Vent 3 kt de direction variable
Visibilité: 10 km
Quelques nuages à une hauteur de 12000 ft
A partir de 03 à 2100 UTC
Vent 8 kt de sud-ouest
Visibilité: 10 km
Quelques nuages à une hauteur de 12000 ft

TAF: KLGU 030520Z 0306/0406 VRB03KT P6SM FEW120 FM032100 23008KT P6SM FEW120

Observations et prévisions météorologiques de plus de 4000 aéroports (messages METAR et TAF).

Les stations disponibles sont représentées par des disques jaunes et rouges sur la carte.

Passer la souris dessus pour voir le nom de la station.

Cliquer dessus pour voir les observations et prévisions météorologiques.

Pour changer de carte: cliquez sur les boutons verts avec une croix noire pour zoomer, sur le bouton vert avec un tiret pour effectuer un zoom arrière, ou sur les flèches vertes pour les cartes adjacentes.


METAR-TAF: